createdAt,value
2017-03-17T00:00:26.155Z,53.62
2017-03-17T00:01:06.713Z,53.62
2017-03-17T00:01:47.246Z,54
2017-03-17T00:02:27.729Z,53.72
2017-03-17T00:03:08.283Z,54.19
2017-03-17T00:03:48.823Z,54
2017-03-17T00:04:29.348Z,53.81
2017-03-17T00:05:09.880Z,54.19
2017-03-17T00:05:50.370Z,54.19
2017-03-17T00:06:30.876Z,53.81
2017-03-17T00:07:11.370Z,53.62
2017-03-17T00:07:51.894Z,54
2017-03-17T00:08:32.383Z,54
2017-03-17T00:09:12.882Z,53.72
2017-03-17T00:09:53.402Z,53.91
2017-03-17T00:10:33.909Z,53.81
2017-03-17T00:11:14.399Z,53.62
2017-03-17T00:11:54.903Z,53.72
2017-03-17T00:12:35.424Z,54
2017-03-17T00:13:15.947Z,54.1
2017-03-17T00:13:56.450Z,53.72
2017-03-17T00:16:10.736Z,53.53
2017-03-17T00:16:51.221Z,53.53
2017-03-17T00:17:31.707Z,53.72
2017-03-17T00:18:12.214Z,53.43
2017-03-17T00:18:52.724Z,53.43
2017-03-17T00:19:33.158Z,53.72
2017-03-17T00:20:13.687Z,53.72
2017-03-17T00:20:54.156Z,54
2017-03-17T00:21:34.611Z,53.62
2017-03-17T00:22:15.133Z,53.81
2017-03-17T00:22:55.660Z,53.81
2017-03-17T00:23:36.111Z,53.72
2017-03-17T00:24:16.558Z,54.1
2017-03-17T00:24:57.064Z,53.81
2017-03-17T00:25:37.531Z,53.91
2017-03-17T00:26:18.045Z,53.62
2017-03-17T00:26:58.548Z,53.91
2017-03-17T00:27:38.977Z,54.1
2017-03-17T00:28:19.489Z,54.19
2017-03-17T00:28:59.997Z,53.72
2017-03-17T00:29:40.471Z,53.72
2017-03-17T00:30:20.977Z,53.43
2017-03-17T00:31:01.487Z,53.91
2017-03-17T00:31:41.950Z,53.91
2017-03-17T00:32:22.421Z,54
2017-03-17T00:33:02.948Z,53.72
2017-03-17T00:33:43.409Z,53.62
2017-03-17T00:34:23.938Z,53.24
2017-03-17T00:35:04.386Z,53.53
2017-03-17T00:35:44.890Z,53.72
2017-03-17T00:36:25.406Z,53.72
2017-03-17T00:37:05.917Z,53.91
2017-03-17T00:37:46.380Z,53.53
2017-03-17T00:38:26.884Z,53.33
2017-03-17T00:39:07.369Z,53.43
2017-03-17T00:39:47.870Z,53.05
2017-03-17T00:40:28.348Z,53.14
2017-03-17T00:41:08.888Z,53.05
2017-03-17T00:41:49.376Z,53.81
2017-03-17T00:42:29.851Z,52.95
2017-03-17T00:43:10.360Z,53.72
2017-03-17T00:43:50.883Z,53.43
2017-03-17T00:44:31.401Z,53.72
2017-03-17T00:45:11.965Z,53.62
2017-03-17T00:45:52.421Z,54.1
2017-03-17T00:46:32.911Z,53.72
2017-03-17T00:47:13.427Z,54.19
2017-03-17T00:47:53.921Z,54.29
2017-03-17T00:48:34.406Z,54.29
2017-03-17T00:49:14.923Z,54.48
2017-03-17T00:49:55.444Z,54.83
2017-03-17T00:50:35.982Z,55.34
2017-03-17T00:51:16.496Z,54.67
2017-03-17T00:51:56.946Z,55.24
2017-03-17T00:52:37.460Z,55.43
2017-03-17T00:53:17.931Z,55.24
2017-03-17T00:53:58.424Z,55.34
2017-03-17T00:54:38.923Z,55.69
2017-03-17T00:55:19.459Z,55.6
2017-03-17T00:55:59.964Z,55.88
2017-03-17T00:56:40.415Z,55.82
2017-03-17T00:57:20.904Z,55.82
2017-03-17T00:58:01.372Z,56.2
2017-03-17T00:58:41.870Z,56.2
2017-03-17T00:59:22.393Z,56.87
2017-03-17T01:00:02.883Z,57.24
2017-03-17T01:00:43.366Z,56.67
2017-03-17T01:01:23.899Z,57.24
2017-03-17T01:02:04.323Z,56.96
2017-03-17T01:02:44.848Z,57.06
2017-03-17T01:03:25.299Z,57.24
2017-03-17T01:04:05.795Z,57.24
2017-03-17T01:04:46.286Z,56.96
2017-03-17T01:05:26.795Z,56.96
2017-03-17T01:06:07.269Z,57.24
2017-03-17T01:06:47.772Z,57.03
2017-03-17T01:07:28.273Z,57.12
2017-03-17T01:08:08.732Z,57.15
2017-03-17T01:08:49.257Z,56.87
2017-03-17T01:09:29.760Z,57.15
2017-03-17T01:10:10.278Z,56.77
2017-03-17T01:10:50.756Z,56.74
2017-03-17T01:11:31.248Z,56.93
2017-03-17T01:12:11.725Z,57.22
2017-03-17T01:12:52.222Z,57.34
2017-03-17T01:13:32.721Z,57.34
2017-03-17T01:14:13.210Z,57.24
2017-03-17T01:14:53.707Z,57.24
2017-03-17T01:15:34.196Z,57.34
2017-03-17T01:16:14.743Z,57.34
2017-03-17T01:16:55.278Z,57.43
2017-03-17T01:17:35.721Z,57.63
2017-03-17T01:18:16.172Z,56.87
2017-03-17T01:18:56.640Z,57.34
2017-03-17T01:19:37.157Z,57.41
2017-03-17T01:20:17.684Z,57.06
2017-03-17T01:20:58.171Z,57.53
2017-03-17T01:21:38.693Z,57.24
2017-03-17T01:22:19.198Z,57.31
2017-03-17T01:22:59.702Z,57.43
2017-03-17T01:23:40.241Z,57.43
2017-03-17T01:24:20.671Z,57.34
2017-03-17T01:25:01.183Z,56.96
2017-03-17T01:25:41.672Z,57.24
2017-03-17T01:26:22.155Z,57.43
2017-03-17T01:27:02.648Z,57.34
2017-03-17T01:27:43.131Z,56.96
2017-03-17T01:28:23.608Z,57.31
2017-03-17T01:29:04.102Z,56.93
2017-03-17T01:29:44.619Z,57.34
2017-03-17T01:30:25.117Z,57.31
2017-03-17T01:31:05.598Z,57.31
2017-03-17T01:31:46.100Z,56.96
2017-03-17T01:32:26.596Z,56.74
2017-03-17T01:33:07.077Z,57.31
2017-03-17T01:33:47.558Z,57.41
2017-03-17T01:34:28.048Z,57.7
2017-03-17T01:35:08.565Z,57.5
2017-03-17T01:35:49.050Z,57.41
2017-03-17T01:36:29.575Z,57.31
2017-03-17T01:37:10.022Z,57.7
2017-03-17T01:37:50.512Z,57.7
2017-03-17T01:38:31.030Z,57.6
2017-03-17T01:39:11.522Z,57.6
2017-03-17T01:39:52.037Z,57.12
2017-03-17T01:40:32.545Z,57.31
2017-03-17T01:41:13.024Z,57.31
2017-03-17T01:41:53.512Z,57.6
2017-03-17T01:42:33.987Z,57.7
2017-03-17T01:43:14.499Z,57.7
2017-03-17T01:43:54.958Z,57.41
2017-03-17T01:44:35.445Z,57.31
2017-03-17T01:45:15.955Z,57.31
2017-03-17T01:45:56.441Z,57.41
2017-03-17T01:46:36.947Z,57.41
2017-03-17T01:47:17.430Z,57.5
2017-03-17T01:47:57.956Z,57.43
2017-03-17T01:48:38.442Z,57.22
2017-03-17T01:49:18.933Z,57.24
2017-03-17T01:49:59.445Z,57.53
2017-03-17T01:50:39.928Z,57.24
2017-03-17T01:51:20.435Z,57.34
2017-03-17T01:52:00.901Z,57.53
2017-03-17T01:52:41.395Z,57.5
2017-03-17T01:53:21.899Z,57.31
2017-03-17T01:54:02.442Z,57.12
2017-03-17T01:54:42.955Z,57.31
2017-03-17T01:55:23.466Z,57.41
2017-03-17T01:56:03.898Z,57.6
2017-03-17T01:56:44.384Z,57.5
2017-03-17T01:57:24.897Z,57.89
2017-03-17T01:58:05.339Z,57.79
2017-03-17T01:58:45.844Z,57.89
2017-03-17T01:59:26.300Z,58.17
2017-03-17T02:00:06.802Z,58.75
2017-03-17T02:00:47.300Z,58.46
2017-03-17T02:01:27.797Z,58.36
2017-03-17T02:02:08.274Z,58.36
2017-03-17T02:02:48.793Z,58.84
2017-03-17T02:03:29.303Z,58.55
2017-03-17T02:04:09.822Z,58.84
2017-03-17T02:04:50.298Z,58.84
2017-03-17T02:05:30.831Z,58.65
2017-03-17T02:06:11.282Z,58.36
2017-03-17T02:06:51.799Z,58.55
2017-03-17T02:07:32.290Z,58.84
2017-03-17T02:08:12.755Z,58.84
2017-03-17T02:08:53.255Z,58.84
2017-03-17T02:09:33.743Z,58.46
2017-03-17T02:10:14.212Z,58.55
2017-03-17T02:10:54.695Z,58.75
2017-03-17T02:11:35.192Z,58.94
2017-03-17T02:12:15.656Z,59.22
2017-03-17T02:12:56.141Z,59.6
2017-03-17T02:13:36.571Z,59.6
2017-03-17T02:14:17.086Z,59.31
2017-03-17T02:14:57.527Z,59.51
2017-03-17T02:15:38.048Z,59.51
2017-03-17T02:16:18.512Z,59.79
2017-03-17T02:16:59.036Z,59.22
2017-03-17T02:17:39.516Z,59.79
2017-03-17T02:18:20.002Z,59.79
2017-03-17T02:19:00.451Z,59.79
2017-03-17T02:19:40.945Z,59.89
2017-03-17T02:20:21.440Z,60.46
2017-03-17T02:21:01.952Z,60.36
2017-03-17T02:21:42.490Z,60.75
2017-03-17T02:22:22.974Z,60.36
2017-03-17T02:23:03.508Z,60.17
2017-03-17T02:23:43.974Z,60.27
2017-03-17T02:24:24.450Z,60.55
2017-03-17T02:25:04.965Z,60.55
2017-03-17T02:25:45.490Z,60.84
2017-03-17T02:26:25.982Z,60.81
2017-03-17T02:27:06.485Z,60.55
2017-03-17T02:27:47.007Z,60.65
2017-03-17T02:28:27.510Z,60.75
2017-03-17T02:29:07.987Z,60.84
2017-03-17T02:29:48.509Z,60.72
2017-03-17T02:30:28.991Z,60.75
2017-03-17T02:31:09.463Z,60.84
2017-03-17T02:31:49.992Z,60.46
2017-03-17T02:32:30.460Z,60.55
2017-03-17T02:33:10.956Z,60.94
2017-03-17T02:33:51.463Z,60.55
2017-03-17T02:34:31.928Z,60.75
2017-03-17T02:35:12.466Z,60.46
2017-03-17T02:35:52.895Z,61.13
2017-03-17T02:36:33.400Z,61.13
2017-03-17T02:37:13.940Z,61.13
2017-03-17T02:37:54.396Z,60.94
2017-03-17T02:38:34.894Z,61.22
2017-03-17T02:39:15.393Z,61.04
2017-03-17T02:39:55.909Z,61.22
2017-03-17T02:40:36.363Z,61.13
2017-03-17T02:41:16.878Z,61.13
2017-03-17T02:41:57.369Z,61.04
2017-03-17T02:42:37.856Z,61.51
2017-03-17T02:43:18.351Z,61.13
2017-03-17T02:43:58.837Z,60.84
2017-03-17T02:44:39.343Z,61.48
2017-03-17T02:45:19.828Z,61.1
2017-03-17T02:46:00.357Z,61.8
2017-03-17T02:46:40.861Z,61.32
2017-03-17T02:47:21.325Z,61.86
2017-03-17T02:48:01.809Z,61.41
2017-03-17T02:48:42.308Z,61.41
2017-03-17T02:49:22.802Z,61.6
2017-03-17T02:50:03.301Z,61.7
2017-03-17T02:50:43.793Z,62.46
2017-03-17T02:51:24.273Z,61.96
2017-03-17T02:52:04.787Z,62.18
2017-03-17T02:52:45.289Z,62.08
2017-03-17T02:53:25.786Z,61.99
2017-03-17T02:54:06.313Z,62.08
2017-03-17T02:54:46.781Z,62.65
2017-03-17T02:55:27.302Z,62.65
2017-03-17T02:56:07.792Z,62.43
2017-03-17T02:56:48.258Z,62.34
2017-03-17T02:57:28.772Z,62.43
2017-03-17T02:58:09.231Z,62.81
2017-03-17T02:58:49.729Z,62.81
2017-03-17T02:59:30.236Z,62.62
2017-03-17T03:00:10.716Z,62.43
2017-03-17T03:00:51.223Z,62.52
2017-03-17T03:01:31.692Z,62.62
2017-03-17T03:02:12.220Z,62.72
2017-03-17T03:02:52.795Z,62.91
2017-03-17T03:03:33.151Z,62.91
2017-03-17T03:04:13.650Z,62.52
2017-03-17T03:04:54.222Z,62.91
2017-03-17T03:05:34.654Z,62.81
2017-03-17T03:06:15.169Z,62.62
2017-03-17T03:06:55.660Z,62.81
2017-03-17T03:07:36.113Z,63.2
2017-03-17T03:08:16.656Z,63.29
2017-03-17T03:08:57.086Z,63.1
2017-03-17T03:09:37.778Z,63.29
2017-03-17T03:10:18.043Z,62.72
2017-03-17T03:10:58.543Z,63.29
2017-03-17T03:11:39.018Z,63.2
2017-03-17T03:12:19.576Z,63.29
2017-03-17T03:13:00.031Z,63.67
2017-03-17T03:13:40.564Z,63.48
2017-03-17T03:14:21.025Z,64.15
2017-03-17T03:15:01.498Z,64.05
2017-03-17T03:15:41.965Z,64.15
2017-03-17T03:16:22.447Z,64.15
2017-03-17T03:17:02.984Z,63.86
2017-03-17T03:17:43.443Z,64.34
2017-03-17T03:18:23.946Z,64.05
2017-03-17T03:19:04.441Z,64.24
2017-03-17T03:19:44.936Z,63.96
2017-03-17T03:20:25.427Z,63.48
2017-03-17T03:21:05.871Z,63.96
2017-03-17T03:21:46.396Z,63.76
2017-03-17T03:22:26.852Z,63.76
2017-03-17T03:23:07.380Z,64.05
2017-03-17T03:23:47.906Z,64.24
2017-03-17T03:24:28.355Z,64.62
2017-03-17T03:25:08.890Z,64.43
2017-03-17T03:25:49.394Z,64.43
2017-03-17T03:26:29.946Z,64.05
2017-03-17T03:27:10.398Z,64.43
2017-03-17T03:27:50.886Z,64.05
2017-03-17T03:28:31.372Z,64.24
2017-03-17T03:29:11.824Z,64.62
2017-03-17T03:29:52.345Z,64.62
2017-03-17T03:30:32.789Z,64.62
2017-03-17T03:31:13.310Z,64.53
2017-03-17T03:31:53.756Z,65.1
2017-03-17T03:32:34.269Z,64.81
2017-03-17T03:33:14.737Z,65
2017-03-17T03:33:55.266Z,64.72
2017-03-17T03:34:35.766Z,65.2
2017-03-17T03:35:16.210Z,65
2017-03-17T03:35:56.697Z,65.96
2017-03-17T03:36:37.177Z,65.48
2017-03-17T03:37:17.638Z,65.86
2017-03-17T03:37:58.133Z,65.29
2017-03-17T03:38:38.611Z,64.81
2017-03-17T03:39:19.148Z,64.72
2017-03-17T03:39:59.657Z,65.1
2017-03-17T03:40:40.105Z,64.81
2017-03-17T03:41:20.636Z,64.91
2017-03-17T03:42:01.110Z,64.81
2017-03-17T03:42:41.597Z,65.1
2017-03-17T03:43:22.126Z,64.72
2017-03-17T03:44:02.626Z,65.2
2017-03-17T03:44:43.116Z,65.1
2017-03-17T03:45:23.583Z,65.67
2017-03-17T03:46:04.116Z,65.29
2017-03-17T03:46:44.547Z,64.81
2017-03-17T03:47:25.080Z,64.81
2017-03-17T03:48:05.572Z,65.2
2017-03-17T03:48:46.022Z,65
2017-03-17T03:49:26.617Z,65.2
2017-03-17T03:50:07.073Z,64.91
2017-03-17T03:50:47.591Z,65.2
2017-03-17T03:51:28.099Z,64.81
2017-03-17T03:52:08.580Z,65.2
2017-03-17T03:52:49.054Z,65.86
2017-03-17T03:53:29.567Z,65.48
2017-03-17T03:54:10.050Z,65.86
2017-03-17T03:54:50.527Z,66.15
2017-03-17T03:55:31.028Z,65.96
2017-03-17T03:56:11.506Z,65.29
2017-03-17T03:56:52.030Z,66.05
2017-03-17T03:57:32.481Z,66.34
2017-03-17T03:58:12.947Z,66.24
2017-03-17T03:58:53.470Z,66.05
2017-03-17T03:59:33.964Z,66.05
2017-03-17T04:00:14.438Z,65.86
2017-03-17T04:00:54.949Z,65.86
2017-03-17T04:01:35.398Z,65.58
2017-03-17T04:02:15.874Z,66.15
2017-03-17T04:02:56.374Z,65.39
2017-03-17T04:03:36.847Z,65.86
2017-03-17T04:04:17.350Z,65.86
2017-03-17T04:04:57.869Z,65.86
2017-03-17T04:05:38.329Z,65.48
2017-03-17T04:06:18.844Z,65.86
2017-03-17T04:06:59.365Z,65
2017-03-17T04:07:39.836Z,65.67
2017-03-17T04:08:20.366Z,65.29
2017-03-17T04:09:00.861Z,65.67
2017-03-17T04:09:41.317Z,65.39
2017-03-17T04:10:21.828Z,65.86
2017-03-17T04:11:02.347Z,65
2017-03-17T04:11:42.799Z,65.1
2017-03-17T04:12:23.309Z,65.39
2017-03-17T04:13:03.810Z,65.96
2017-03-17T04:13:44.313Z,65.77
2017-03-17T04:14:24.760Z,65.67
2017-03-17T04:15:05.270Z,65.96
2017-03-17T04:15:45.764Z,65.29
2017-03-17T04:16:26.243Z,64.72
2017-03-17T04:17:06.759Z,65
2017-03-17T04:17:47.277Z,64.81
2017-03-17T04:18:27.731Z,64.81
2017-03-17T04:19:08.227Z,65.1
2017-03-17T04:19:48.787Z,64.81
2017-03-17T04:20:29.265Z,65.67
2017-03-17T04:21:09.711Z,65.86
2017-03-17T04:21:50.219Z,65.67
2017-03-17T04:22:30.716Z,65.96
2017-03-17T04:23:11.185Z,65.48
2017-03-17T04:23:51.676Z,65.67
2017-03-17T04:24:32.187Z,65.86
2017-03-17T04:25:12.655Z,65.67
2017-03-17T04:25:53.183Z,65.48
2017-03-17T04:26:33.663Z,66.24
2017-03-17T04:27:14.153Z,66.24
2017-03-17T04:27:54.650Z,66.24
2017-03-17T04:28:35.203Z,65.96
2017-03-17T04:29:15.673Z,66.11
2017-03-17T04:29:56.123Z,66.63
2017-03-17T04:30:36.645Z,66.4
2017-03-17T04:31:17.156Z,66.21
2017-03-17T04:31:57.624Z,66.4
2017-03-17T04:32:38.091Z,66.53
2017-03-17T04:33:18.577Z,66.53
2017-03-17T04:33:59.049Z,66.44
2017-03-17T04:34:39.550Z,67.1
2017-03-17T04:35:20.076Z,66.82
2017-03-17T04:36:00.584Z,66.82
2017-03-17T04:36:41.046Z,66.82
2017-03-17T04:37:21.568Z,66.53
2017-03-17T04:38:02.078Z,66.63
2017-03-17T04:38:42.637Z,65.96
2017-03-17T04:39:23.088Z,66.05
2017-03-17T04:40:03.627Z,66.05
2017-03-17T04:40:44.065Z,66.24
2017-03-17T04:41:24.596Z,65.86
2017-03-17T04:42:05.065Z,66.15
2017-03-17T04:42:45.568Z,65.86
2017-03-17T04:43:26.066Z,65.96
2017-03-17T04:44:06.580Z,66.05
2017-03-17T04:44:47.083Z,65.96
2017-03-17T04:45:27.546Z,65.86
2017-03-17T04:46:08.062Z,65.67
2017-03-17T04:46:48.609Z,65.96
2017-03-17T04:47:29.215Z,65.96
2017-03-17T04:48:09.710Z,65.96
2017-03-17T04:48:50.193Z,66.24
2017-03-17T04:49:30.701Z,65.92
2017-03-17T04:50:11.189Z,66.24
2017-03-17T04:50:51.712Z,65.96
2017-03-17T04:51:32.220Z,66.34
2017-03-17T04:52:12.715Z,66.24
2017-03-17T04:52:53.238Z,66.97
2017-03-17T04:53:33.736Z,66.88
2017-03-17T04:54:14.211Z,67.07
2017-03-17T04:54:54.690Z,67.45
2017-03-17T04:55:35.172Z,67.55
2017-03-17T04:56:15.707Z,67.26
2017-03-17T04:56:56.219Z,67.45
2017-03-17T04:57:36.713Z,67.26
2017-03-17T04:58:17.208Z,67.45
2017-03-17T04:58:57.695Z,67.35
2017-03-17T04:59:38.182Z,67.93
2017-03-17T05:00:18.714Z,67.74
2017-03-17T05:00:59.178Z,68.37
2017-03-17T05:01:39.686Z,68.84
2017-03-17T05:02:20.200Z,68.75
2017-03-17T05:03:00.681Z,69.04
2017-03-17T05:03:41.159Z,69.13
2017-03-17T05:04:21.662Z,69.32
2017-03-17T05:05:02.163Z,69.23
2017-03-17T05:05:42.672Z,69.23
2017-03-17T05:06:23.178Z,69.23
2017-03-17T05:07:03.695Z,69.23
2017-03-17T05:07:44.164Z,68.75
2017-03-17T05:08:24.656Z,69.04
2017-03-17T05:09:05.153Z,68.65
2017-03-17T05:09:45.670Z,68.84
2017-03-17T05:10:26.144Z,69.51
2017-03-17T05:11:06.636Z,69.79
2017-03-17T05:11:47.189Z,70.27
2017-03-17T05:12:27.637Z,70.08
2017-03-17T05:13:08.155Z,70.27
2017-03-17T05:13:48.621Z,69.99
2017-03-17T05:14:29.184Z,69.7
2017-03-17T05:15:09.630Z,69.6
2017-03-17T05:15:50.148Z,69.6
2017-03-17T05:16:30.627Z,69.6
2017-03-17T05:17:11.148Z,69.89
2017-03-17T05:17:51.680Z,69.6
2017-03-17T05:18:32.183Z,69.51
2017-03-17T05:19:12.698Z,69.51
2017-03-17T05:19:53.160Z,69.32
2017-03-17T05:20:33.656Z,69.51
2017-03-17T05:21:14.183Z,69.79
2017-03-17T05:21:54.645Z,69.42
2017-03-17T05:22:35.128Z,69.99
2017-03-17T05:23:15.669Z,69.6
2017-03-17T05:23:56.166Z,69.51
2017-03-17T05:24:36.593Z,69.51
2017-03-17T05:25:17.080Z,69.79
2017-03-17T05:25:57.595Z,69.23
2017-03-17T05:26:38.077Z,69.79
2017-03-17T05:27:18.565Z,70.37
2017-03-17T05:27:59.074Z,70.37
2017-03-17T05:28:39.569Z,70.37
2017-03-17T05:29:20.073Z,70.18
2017-03-17T05:30:00.583Z,70.18
2017-03-17T05:30:41.070Z,70.37
2017-03-17T05:31:21.566Z,70.47
2017-03-17T05:32:02.090Z,70.47
2017-03-17T05:32:42.541Z,70.65
2017-03-17T05:33:23.037Z,70.37
2017-03-17T05:34:03.581Z,70.56
2017-03-17T05:34:44.022Z,70.27
2017-03-17T05:35:24.511Z,70.65
2017-03-17T05:36:04.994Z,70.37
2017-03-17T05:36:45.487Z,70.56
2017-03-17T05:37:25.982Z,69.99
2017-03-17T05:38:06.540Z,70.27
2017-03-17T05:38:46.999Z,70.27
2017-03-17T05:39:27.517Z,69.99
2017-03-17T05:40:07.968Z,70.37
2017-03-17T05:40:48.466Z,70.27
2017-03-17T05:41:28.999Z,70.18
2017-03-17T05:42:09.530Z,70.94
2017-03-17T05:42:50.044Z,70.94
2017-03-17T05:43:30.567Z,70.94
2017-03-17T05:44:11.041Z,70.47
2017-03-17T05:44:51.596Z,70.56
2017-03-17T05:45:32.092Z,70.94
2017-03-17T05:46:12.596Z,70.65
2017-03-17T05:46:53.107Z,69.99
2017-03-17T05:47:33.596Z,70.18
2017-03-17T05:48:14.069Z,70.08
2017-03-17T05:48:54.580Z,70.27
2017-03-17T05:49:35.069Z,70.47
2017-03-17T05:50:15.570Z,70.37
2017-03-17T05:50:56.055Z,70.08
2017-03-17T05:51:36.598Z,69.7
2017-03-17T05:52:17.050Z,69.7
2017-03-17T05:52:57.568Z,69.79
2017-03-17T05:53:38.051Z,69.99
2017-03-17T05:54:18.509Z,69.74
2017-03-17T05:54:59.010Z,69.79
2017-03-17T05:55:39.522Z,69.13
2017-03-17T05:56:20.048Z,69.6
2017-03-17T05:57:00.554Z,70.27
2017-03-17T05:57:41.068Z,70.37
2017-03-17T05:58:21.562Z,69.79
2017-03-17T05:59:02.053Z,69.79
2017-03-17T05:59:42.567Z,69.23
2017-03-17T06:00:23.031Z,69.32
2017-03-17T06:01:03.525Z,69.7
2017-03-17T06:01:44.024Z,69.04
2017-03-17T06:02:24.478Z,69.26
2017-03-17T06:03:05.002Z,69.23
2017-03-17T06:03:45.464Z,69.35
2017-03-17T06:04:25.942Z,69.74
2017-03-17T06:05:06.455Z,69.54
2017-03-17T06:05:46.949Z,69.07
2017-03-17T06:06:27.467Z,69.35
2017-03-17T06:07:07.987Z,68.88
2017-03-17T06:07:48.511Z,68.88
2017-03-17T06:08:29.000Z,69.17
2017-03-17T06:09:09.510Z,69.17
2017-03-17T06:09:50.029Z,68.98
2017-03-17T06:10:30.466Z,68.88
2017-03-17T06:11:10.960Z,69.17
2017-03-17T06:11:51.485Z,69.07
2017-03-17T06:12:32.007Z,68.88
2017-03-17T06:13:12.507Z,69.35
2017-03-17T06:13:52.994Z,69.35
2017-03-17T06:14:33.522Z,69.54
2017-03-17T06:15:14.026Z,68.98
2017-03-17T06:15:54.475Z,68.98
2017-03-17T06:16:35.049Z,69.54
2017-03-17T06:17:15.641Z,69.54
2017-03-17T06:17:56.065Z,69.07
2017-03-17T06:18:36.953Z,68.78
2017-03-17T06:19:17.436Z,68.59
2017-03-17T06:19:57.933Z,68.59
2017-03-17T06:20:38.454Z,68.88
2017-03-17T06:21:18.972Z,68.88
2017-03-17T06:21:59.425Z,68.78
2017-03-17T06:22:39.894Z,68.88
2017-03-17T06:23:20.390Z,68.88
2017-03-17T06:24:00.900Z,68.78
2017-03-17T06:24:41.371Z,69.07
2017-03-17T06:25:21.881Z,68.59
2017-03-17T06:26:02.395Z,68.78
2017-03-17T06:26:42.925Z,68.98
2017-03-17T06:27:23.431Z,68.78
2017-03-17T06:28:03.953Z,68.98
2017-03-17T06:28:44.389Z,68.98
2017-03-17T06:29:24.895Z,70.21
2017-03-17T06:30:05.423Z,69.64
2017-03-17T06:30:45.892Z,69.07
2017-03-17T06:31:26.405Z,68.82
2017-03-17T06:32:06.911Z,68.72
2017-03-17T06:32:47.391Z,69.1
2017-03-17T06:33:27.879Z,69.77
2017-03-17T06:34:08.505Z,72.06
2017-03-17T06:34:49.018Z,71.01
2017-03-17T06:35:29.496Z,70.53
2017-03-17T06:36:10.046Z,72.44
2017-03-17T06:36:50.516Z,74.82
2017-03-17T06:37:31.015Z,78.16
2017-03-17T06:38:11.556Z,82.07
2017-03-17T06:38:52.015Z,88.4
2017-03-17T06:39:32.568Z,84.49
2017-03-17T06:40:13.159Z,82.01
2017-03-17T06:40:53.578Z,79.91
2017-03-17T06:41:34.071Z,75.53
2017-03-17T06:42:14.636Z,75.87
2017-03-17T06:42:55.159Z,74.25
2017-03-17T06:43:35.661Z,74.16
2017-03-17T06:44:16.906Z,73.49
2017-03-17T06:44:57.362Z,71.96
2017-03-17T06:45:37.863Z,69.48
2017-03-17T06:46:18.387Z,68.72
2017-03-17T06:46:58.936Z,68.95
2017-03-17T06:47:39.620Z,67.86
2017-03-17T06:48:20.393Z,67.86
2017-03-17T06:49:00.839Z,68.09
2017-03-17T06:49:41.342Z,67.52
2017-03-17T06:50:21.846Z,68.47
2017-03-17T06:51:02.324Z,67.96
2017-03-17T06:51:42.795Z,67.77
2017-03-17T06:52:23.298Z,67.71
2017-03-17T06:53:03.761Z,67.9
2017-03-17T06:53:44.300Z,67.77
2017-03-17T06:54:24.784Z,67.58
2017-03-17T06:55:05.303Z,67.42
2017-03-17T06:55:45.737Z,67.71
2017-03-17T06:56:26.240Z,67.39
2017-03-17T06:57:06.721Z,67.39
2017-03-17T06:57:47.239Z,67.48
2017-03-17T06:58:27.819Z,67.9
2017-03-17T06:59:08.390Z,67.99
2017-03-17T06:59:48.884Z,67.71
2017-03-17T07:00:29.401Z,67.33
2017-03-17T07:01:09.942Z,67.33
2017-03-17T07:01:50.355Z,67.04
2017-03-17T07:02:30.922Z,66.47
2017-03-17T07:03:11.401Z,66.47
2017-03-17T07:03:51.862Z,66.12
2017-03-17T07:04:32.324Z,69.37
2017-03-17T07:05:12.826Z,87.82
2017-03-17T07:05:53.319Z,89.83
2017-03-17T07:06:33.863Z,78.23
2017-03-17T07:07:14.398Z,71.75
2017-03-17T07:07:54.842Z,69.84
2017-03-17T07:08:35.368Z,68.03
2017-03-17T07:09:15.847Z,69.74
2017-03-17T07:09:56.351Z,70.7
2017-03-17T07:10:36.851Z,71.27
2017-03-17T07:11:17.358Z,74.04
2017-03-17T07:11:57.804Z,77.8
2017-03-17T07:12:38.307Z,79.43
2017-03-17T07:13:18.799Z,77.03
2017-03-17T07:13:59.313Z,69.78
2017-03-17T07:14:39.841Z,70.07
2017-03-17T07:15:20.319Z,67.49
2017-03-17T07:16:00.804Z,80.09
2017-03-17T07:16:41.304Z,78.37
2017-03-17T07:17:22.021Z,72.07
2017-03-17T07:18:04.627Z,69.59
2017-03-17T07:18:43.070Z,70.54
2017-03-17T07:19:24.424Z,69.59
2017-03-17T07:20:06.413Z,67.4
2017-03-17T07:20:47.873Z,82.52
2017-03-17T07:21:28.530Z,79.08
2017-03-17T07:22:09.033Z,69.62
2017-03-17T07:22:49.527Z,64.94
2017-03-17T07:23:30.321Z,63.67
2017-03-17T07:24:10.826Z,64.18
2017-03-17T07:24:51.288Z,64.47
2017-03-17T07:25:33.073Z,66.85
2017-03-17T07:26:13.663Z,67.62
2017-03-17T07:26:54.103Z,67.71
2017-03-17T07:27:34.603Z,82.32
2017-03-17T07:28:15.110Z,85.52
2017-03-17T07:28:55.611Z,87.15
2017-03-17T07:29:36.142Z,86.47
2017-03-17T07:31:25.946Z,82.94
2017-03-17T07:32:06.463Z,84.03
2017-03-17T07:32:47.043Z,81.93
2017-03-17T07:33:29.368Z,77.06
2017-03-17T07:34:09.818Z,78.39
2017-03-17T07:34:50.298Z,76
2017-03-17T07:35:30.767Z,73.61
2017-03-17T07:36:11.258Z,77.63
2017-03-17T07:36:51.742Z,71.32
2017-03-17T07:37:32.232Z,68.07
2017-03-17T07:38:12.769Z,63.39
2017-03-17T07:38:53.251Z,64.15
2017-03-17T07:39:33.775Z,64.62
2017-03-17T07:40:14.217Z,65.39
2017-03-17T07:40:54.745Z,64.62
2017-03-17T07:41:35.269Z,64.05
2017-03-17T07:42:15.744Z,69.21
2017-03-17T07:42:57.455Z,76.96
2017-03-17T07:43:38.680Z,69.02
2017-03-17T07:44:19.130Z,68.55
2017-03-17T07:44:59.666Z,70.78
2017-03-17T07:45:40.099Z,75.76
2017-03-17T07:46:20.642Z,80.16
2017-03-17T07:47:01.104Z,80.73
2017-03-17T07:47:41.603Z,69.25
2017-03-17T07:48:22.088Z,67.43
2017-03-17T07:49:02.617Z,70.68
2017-03-17T07:49:43.130Z,76.42
2017-03-17T07:50:23.634Z,69.44
2017-03-17T07:51:04.187Z,71.26
2017-03-17T07:51:44.730Z,77.19
2017-03-17T07:52:25.240Z,75.27
2017-03-17T07:53:05.744Z,69.82
2017-03-17T07:53:46.336Z,68.2
2017-03-17T07:54:26.844Z,65.9
2017-03-17T07:55:07.361Z,64.18
2017-03-17T07:55:47.933Z,63.89
2017-03-17T07:56:28.419Z,63.89
2017-03-17T07:57:08.958Z,64.75
2017-03-17T07:57:49.519Z,63.51
2017-03-17T07:58:29.965Z,63.89
2017-03-17T07:59:10.530Z,65.26
2017-03-17T07:59:50.931Z,67.91
2017-03-17T08:00:31.471Z,73.21
2017-03-17T08:01:12.017Z,73.5
2017-03-17T08:01:52.524Z,70.81
2017-03-17T08:02:33.009Z,65.36
2017-03-17T08:03:13.606Z,71.48
2017-03-17T08:03:54.054Z,73.69
2017-03-17T08:04:34.562Z,71.3
2017-03-17T08:05:15.122Z,82.11
2017-03-17T08:05:55.573Z,84.64
2017-03-17T08:06:36.166Z,87.13
2017-03-17T08:07:16.637Z,84.74
2017-03-17T08:07:58.162Z,82.53
2017-03-17T08:08:38.656Z,80.94
2017-03-17T08:09:19.161Z,77.02
2017-03-17T08:09:59.655Z,74.15
2017-03-17T08:10:40.234Z,75.96
2017-03-17T08:11:20.715Z,79.57
2017-03-17T08:12:01.225Z,76.4
2017-03-17T08:12:41.727Z,71.71
2017-03-17T08:13:22.256Z,75.26
2017-03-17T08:14:02.825Z,73.05
2017-03-17T08:14:43.333Z,66.54
2017-03-17T08:15:23.939Z,63.1
2017-03-17T08:16:04.466Z,63.96
2017-03-17T08:16:44.959Z,62.71
2017-03-17T08:17:25.487Z,61.47
2017-03-17T08:18:05.971Z,60.61
2017-03-17T08:18:46.477Z,60.03
2017-03-17T08:19:27.049Z,59.75
2017-03-17T08:20:07.543Z,59.87
2017-03-17T08:20:48.063Z,60.25
2017-03-17T08:21:28.573Z,60.16
2017-03-17T08:22:09.052Z,59.3
2017-03-17T08:22:49.519Z,59.87
2017-03-17T08:23:30.065Z,59.3
2017-03-17T08:24:10.590Z,59.11
2017-03-17T08:24:51.116Z,59.2
2017-03-17T08:25:31.572Z,58.62
2017-03-17T08:26:12.045Z,58.91
2017-03-17T08:26:52.561Z,58.81
2017-03-17T08:27:33.055Z,58.91
2017-03-17T08:28:13.564Z,57.76
2017-03-17T08:28:54.073Z,57.57
2017-03-17T08:29:34.515Z,56.52
2017-03-17T08:30:15.008Z,56.04
2017-03-17T08:30:55.528Z,56.61
2017-03-17T08:31:36.048Z,60.16
2017-03-17T08:32:16.540Z,74.15
2017-03-17T08:32:57.036Z,77.11
2017-03-17T08:33:37.544Z,77.15
2017-03-17T08:34:18.067Z,73.13
2017-03-17T08:34:58.570Z,67.63
2017-03-17T08:35:39.087Z,69.68
2017-03-17T08:36:19.599Z,70.35
2017-03-17T08:37:00.084Z,68.43
2017-03-17T08:37:40.610Z,67.57
2017-03-17T08:38:21.099Z,72.84
2017-03-17T08:39:01.597Z,76.67
2017-03-17T08:39:42.113Z,73.61
2017-03-17T08:40:22.583Z,69.39
2017-03-17T08:41:03.081Z,66.03
2017-03-17T08:41:43.580Z,65.17
2017-03-17T08:42:24.200Z,65.36
2017-03-17T08:43:04.737Z,69.68
2017-03-17T08:43:45.180Z,65.36
2017-03-17T08:44:25.696Z,62.96
2017-03-17T08:45:06.183Z,58.94
2017-03-17T08:45:46.676Z,59.23
2017-03-17T08:46:27.164Z,59.42
2017-03-17T08:47:07.734Z,58.56